sensor_id;sensor_type;location;lat;lon;timestamp;P1;durP1;ratioP1;P2;durP2;ratioP2
21162;SDS011;10739;52.198;20.908;2022-12-18T00:01:27;44.63;;;23.35;;
21162;SDS011;10739;52.198;20.908;2022-12-18T00:04:03;44.03;;;22.42;;
21162;SDS011;10739;52.198;20.908;2022-12-18T00:06:31;43.80;;;21.75;;
21162;SDS011;10739;52.198;20.908;2022-12-18T00:08:59;45.45;;;23.00;;
21162;SDS011;10739;52.198;20.908;2022-12-18T00:11:28;43.92;;;23.08;;
21162;SDS011;10739;52.198;20.908;2022-12-18T00:13:56;45.33;;;23.42;;
21162;SDS011;10739;52.198;20.908;2022-12-18T00:16:25;46.63;;;22.75;;
21162;SDS011;10739;52.198;20.908;2022-12-18T00:18:54;43.10;;;22.02;;
21162;SDS011;10739;52.198;20.908;2022-12-18T00:21:22;43.20;;;22.55;;
21162;SDS011;10739;52.198;20.908;2022-12-18T00:23:49;43.05;;;23.55;;
21162;SDS011;10739;52.198;20.908;2022-12-18T00:26:19;46.03;;;22.95;;
21162;SDS011;10739;52.198;20.908;2022-12-18T00:28:51;44.17;;;21.85;;
21162;SDS011;10739;52.198;20.908;2022-12-18T00:31:19;42.60;;;23.20;;
21162;SDS011;10739;52.198;20.908;2022-12-18T00:33:49;47.15;;;22.67;;
21162;SDS011;10739;52.198;20.908;2022-12-18T00:36:17;42.97;;;21.55;;
21162;SDS011;10739;52.198;20.908;2022-12-18T00:38:49;45.50;;;21.60;;
21162;SDS011;10739;52.198;20.908;2022-12-18T00:41:16;44.20;;;21.80;;
21162;SDS011;10739;52.198;20.908;2022-12-18T00:44:03;49.17;;;22.05;;
21162;SDS011;10739;52.198;20.908;2022-12-18T00:46:31;47.78;;;23.08;;
21162;SDS011;10739;52.198;20.908;2022-12-18T00:48:57;45.95;;;21.92;;
21162;SDS011;10739;52.198;20.908;2022-12-18T00:51:25;44.00;;;22.20;;
21162;SDS011;10739;52.198;20.908;2022-12-18T00:53:52;39.85;;;20.95;;
21162;SDS011;10739;52.198;20.908;2022-12-18T00:56:18;41.08;;;20.05;;
21162;SDS011;10739;52.198;20.908;2022-12-18T00:58:44;44.97;;;22.33;;
21162;SDS011;10739;52.198;20.908;2022-12-18T01:01:10;45.33;;;21.60;;
21162;SDS011;10739;52.198;20.908;2022-12-18T01:03:37;45.63;;;22.40;;
21162;SDS011;10739;52.198;20.908;2022-12-18T01:06:09;42.25;;;21.23;;
21162;SDS011;10739;52.198;20.908;2022-12-18T01:08:38;40.58;;;21.70;;
21162;SDS011;10739;52.198;20.908;2022-12-18T01:11:08;42.75;;;21.17;;
21162;SDS011;10739;52.198;20.908;2022-12-18T01:13:39;45.33;;;21.98;;
21162;SDS011;10739;52.198;20.908;2022-12-18T01:16:06;46.55;;;21.90;;
21162;SDS011;10739;52.198;20.908;2022-12-18T01:18:34;45.90;;;20.25;;
21162;SDS011;10739;52.198;20.908;2022-12-18T01:21:00;44.00;;;20.67;;
21162;SDS011;10739;52.198;20.908;2022-12-18T01:23:33;41.17;;;20.70;;
21162;SDS011;10739;52.198;20.908;2022-12-18T01:26:11;45.38;;;20.65;;
21162;SDS011;10739;52.198;20.908;2022-12-18T01:28:41;46.03;;;20.63;;
21162;SDS011;10739;52.198;20.908;2022-12-18T01:31:13;42.60;;;20.60;;
21162;SDS011;10739;52.198;20.908;2022-12-18T01:33:45;42.30;;;20.65;;
21162;SDS011;10739;52.198;20.908;2022-12-18T01:36:16;44.70;;;20.20;;
21162;SDS011;10739;52.198;20.908;2022-12-18T01:38:49;45.65;;;19.70;;
21162;SDS011;10739;52.198;20.908;2022-12-18T01:41:17;42.80;;;20.10;;
21162;SDS011;10739;52.198;20.908;2022-12-18T01:43:51;45.97;;;20.92;;
21162;SDS011;10739;52.198;20.908;2022-12-18T01:46:23;43.17;;;20.83;;
21162;SDS011;10739;52.198;20.908;2022-12-18T01:48:55;43.83;;;20.38;;
21162;SDS011;10739;52.198;20.908;2022-12-18T01:51:25;47.17;;;20.67;;
21162;SDS011;10739;52.198;20.908;2022-12-18T01:53:55;47.55;;;21.17;;
21162;SDS011;10739;52.198;20.908;2022-12-18T01:56:22;43.03;;;18.92;;
21162;SDS011;10739;52.198;20.908;2022-12-18T01:58:51;50.53;;;21.17;;
21162;SDS011;10739;52.198;20.908;2022-12-18T02:01:25;35.25;;;18.75;;
21162;SDS011;10739;52.198;20.908;2022-12-18T02:03:52;43.05;;;19.98;;
21162;SDS011;10739;52.198;20.908;2022-12-18T02:06:20;44.05;;;18.15;;
21162;SDS011;10739;52.198;20.908;2022-12-18T02:17:52;46.17;;;20.58;;
21162;SDS011;10739;52.198;20.908;2022-12-18T02:20:43;45.47;;;20.33;;
21162;SDS011;10739;52.198;20.908;2022-12-18T02:29:35;48.05;;;20.92;;
21162;SDS011;10739;52.198;20.908;2022-12-18T02:32:09;45.00;;;19.50;;
21162;SDS011;10739;52.198;20.908;2022-12-18T02:34:43;45.95;;;21.17;;
21162;SDS011;10739;52.198;20.908;2022-12-18T02:37:12;43.53;;;19.88;;
21162;SDS011;10739;52.198;20.908;2022-12-18T02:39:44;42.88;;;20.02;;
21162;SDS011;10739;52.198;20.908;2022-12-18T02:42:14;46.15;;;20.10;;
21162;SDS011;10739;52.198;20.908;2022-12-18T02:44:47;46.67;;;20.90;;
21162;SDS011;10739;52.198;20.908;2022-12-18T02:47:16;45.97;;;19.20;;
21162;SDS011;10739;52.198;20.908;2022-12-18T03:04:30;45.60;;;19.88;;
21162;SDS011;10739;52.198;20.908;2022-12-18T03:09:42;43.20;;;18.50;;
21162;SDS011;10739;52.198;20.908;2022-12-18T03:12:15;43.70;;;19.83;;
21162;SDS011;10739;52.198;20.908;2022-12-18T03:15:20;45.17;;;19.60;;
21162;SDS011;10739;52.198;20.908;2022-12-18T03:17:57;47.42;;;19.00;;
21162;SDS011;10739;52.198;20.908;2022-12-18T03:20:32;42.88;;;20.13;;
21162;SDS011;10739;52.198;20.908;2022-12-18T03:23:04;46.92;;;20.80;;
21162;SDS011;10739;52.198;20.908;2022-12-18T03:25:40;47.80;;;21.40;;
21162;SDS011;10739;52.198;20.908;2022-12-18T03:28:12;42.53;;;19.25;;
21162;SDS011;10739;52.198;20.908;2022-12-18T03:30:44;45.22;;;19.60;;
21162;SDS011;10739;52.198;20.908;2022-12-18T03:36:22;48.08;;;19.38;;
21162;SDS011;10739;52.198;20.908;2022-12-18T03:38:49;46.53;;;18.73;;
21162;SDS011;10739;52.198;20.908;2022-12-18T03:41:18;45.78;;;18.73;;
21162;SDS011;10739;52.198;20.908;2022-12-18T03:47:08;39.95;;;19.05;;
21162;SDS011;10739;52.198;20.908;2022-12-18T03:50:36;40.75;;;19.02;;
21162;SDS011;10739;52.198;20.908;2022-12-18T03:56:11;42.17;;;19.38;;
21162;SDS011;10739;52.198;20.908;2022-12-18T03:58:41;41.88;;;19.52;;
21162;SDS011;10739;52.198;20.908;2022-12-18T04:01:10;47.45;;;19.08;;
21162;SDS011;10739;52.198;20.908;2022-12-18T04:03:42;47.27;;;19.40;;
21162;SDS011;10739;52.198;20.908;2022-12-18T04:06:11;42.42;;;19.13;;
21162;SDS011;10739;52.198;20.908;2022-12-18T04:08:40;39.95;;;19.02;;
21162;SDS011;10739;52.198;20.908;2022-12-18T04:11:07;41.85;;;17.33;;
21162;SDS011;10739;52.198;20.908;2022-12-18T04:13:36;42.83;;;18.83;;
21162;SDS011;10739;52.198;20.908;2022-12-18T04:16:04;44.05;;;19.08;;
21162;SDS011;10739;52.198;20.908;2022-12-18T04:18:30;44.15;;;19.45;;
21162;SDS011;10739;52.198;20.908;2022-12-18T04:20:56;42.63;;;19.65;;
21162;SDS011;10739;52.198;20.908;2022-12-18T04:23:23;47.22;;;19.40;;
21162;SDS011;10739;52.198;20.908;2022-12-18T04:25:49;46.97;;;21.10;;
21162;SDS011;10739;52.198;20.908;2022-12-18T04:28:15;44.10;;;20.50;;
21162;SDS011;10739;52.198;20.908;2022-12-18T04:30:41;43.45;;;20.63;;
21162;SDS011;10739;52.198;20.908;2022-12-18T04:33:08;43.97;;;20.23;;
21162;SDS011;10739;52.198;20.908;2022-12-18T04:35:37;44.35;;;21.60;;
21162;SDS011;10739;52.198;20.908;2022-12-18T04:38:05;44.55;;;20.80;;
21162;SDS011;10739;52.198;20.908;2022-12-18T04:40:33;43.55;;;21.40;;
21162;SDS011;10739;52.198;20.908;2022-12-18T04:43:00;44.10;;;19.88;;
21162;SDS011;10739;52.198;20.908;2022-12-18T04:45:26;46.47;;;20.75;;
21162;SDS011;10739;52.198;20.908;2022-12-18T04:47:52;45.08;;;21.70;;
21162;SDS011;10739;52.198;20.908;2022-12-18T04:50:18;53.50;;;23.38;;
21162;SDS011;10739;52.198;20.908;2022-12-18T04:52:44;52.95;;;21.08;;
21162;SDS011;10739;52.198;20.908;2022-12-18T04:55:11;51.58;;;20.58;;
21162;SDS011;10739;52.198;20.908;2022-12-18T04:57:37;45.72;;;21.77;;
21162;SDS011;10739;52.198;20.908;2022-12-18T05:00:03;54.60;;;22.25;;
21162;SDS011;10739;52.198;20.908;2022-12-18T05:02:31;49.08;;;21.67;;
21162;SDS011;10739;52.198;20.908;2022-12-18T05:04:58;44.65;;;22.27;;
21162;SDS011;10739;52.198;20.908;2022-12-18T05:07:24;44.60;;;21.35;;
21162;SDS011;10739;52.198;20.908;2022-12-18T05:09:50;51.22;;;22.55;;
21162;SDS011;10739;52.198;20.908;2022-12-18T05:12:17;51.03;;;23.58;;
21162;SDS011;10739;52.198;20.908;2022-12-18T05:14:43;51.25;;;21.40;;
21162;SDS011;10739;52.198;20.908;2022-12-18T05:17:09;48.10;;;22.13;;
21162;SDS011;10739;52.198;20.908;2022-12-18T05:19:35;50.08;;;21.33;;
21162;SDS011;10739;52.198;20.908;2022-12-18T05:22:03;55.60;;;21.40;;
21162;SDS011;10739;52.198;20.908;2022-12-18T05:24:29;48.17;;;21.05;;
21162;SDS011;10739;52.198;20.908;2022-12-18T05:26:55;52.97;;;23.77;;
21162;SDS011;10739;52.198;20.908;2022-12-18T05:29:22;53.42;;;23.73;;
21162;SDS011;10739;52.198;20.908;2022-12-18T05:31:48;50.20;;;22.05;;
21162;SDS011;10739;52.198;20.908;2022-12-18T05:34:14;57.38;;;23.65;;
21162;SDS011;10739;52.198;20.908;2022-12-18T05:36:40;47.83;;;21.73;;
21162;SDS011;10739;52.198;20.908;2022-12-18T05:39:07;52.45;;;23.35;;
21162;SDS011;10739;52.198;20.908;2022-12-18T05:41:33;54.00;;;23.65;;
21162;SDS011;10739;52.198;20.908;2022-12-18T05:43:59;56.10;;;23.80;;
21162;SDS011;10739;52.198;20.908;2022-12-18T05:46:26;49.08;;;22.52;;
21162;SDS011;10739;52.198;20.908;2022-12-18T05:48:52;51.40;;;23.17;;
21162;SDS011;10739;52.198;20.908;2022-12-18T05:51:19;55.67;;;23.30;;
21162;SDS011;10739;52.198;20.908;2022-12-18T05:53:47;53.55;;;23.15;;
21162;SDS011;10739;52.198;20.908;2022-12-18T05:56:15;60.58;;;24.67;;
21162;SDS011;10739;52.198;20.908;2022-12-18T05:58:45;58.87;;;23.73;;
21162;SDS011;10739;52.198;20.908;2022-12-18T06:01:16;49.58;;;23.55;;
21162;SDS011;10739;52.198;20.908;2022-12-18T06:03:47;53.60;;;22.65;;
21162;SDS011;10739;52.198;20.908;2022-12-18T06:06:15;56.17;;;23.48;;
21162;SDS011;10739;52.198;20.908;2022-12-18T06:08:50;50.97;;;23.90;;
21162;SDS011;10739;52.198;20.908;2022-12-18T06:11:19;52.47;;;23.73;;
21162;SDS011;10739;52.198;20.908;2022-12-18T06:13:52;54.30;;;23.70;;
21162;SDS011;10739;52.198;20.908;2022-12-18T06:16:20;52.53;;;24.48;;
21162;SDS011;10739;52.198;20.908;2022-12-18T06:18:47;55.72;;;24.13;;
21162;SDS011;10739;52.198;20.908;2022-12-18T06:21:13;51.42;;;23.75;;
21162;SDS011;10739;52.198;20.908;2022-12-18T06:23:39;56.67;;;23.92;;
21162;SDS011;10739;52.198;20.908;2022-12-18T06:26:09;53.67;;;22.83;;
21162;SDS011;10739;52.198;20.908;2022-12-18T06:28:37;51.15;;;22.90;;
21162;SDS011;10739;52.198;20.908;2022-12-18T06:31:04;56.13;;;24.33;;
21162;SDS011;10739;52.198;20.908;2022-12-18T06:33:31;55.50;;;25.02;;
21162;SDS011;10739;52.198;20.908;2022-12-18T06:36:06;57.60;;;24.35;;
21162;SDS011;10739;52.198;20.908;2022-12-18T06:38:36;51.13;;;24.35;;
21162;SDS011;10739;52.198;20.908;2022-12-18T06:41:09;60.22;;;25.08;;
21162;SDS011;10739;52.198;20.908;2022-12-18T06:43:44;58.30;;;23.25;;
21162;SDS011;10739;52.198;20.908;2022-12-18T06:46:11;52.45;;;22.88;;
21162;SDS011;10739;52.198;20.908;2022-12-18T06:48:38;58.03;;;25.05;;
21162;SDS011;10739;52.198;20.908;2022-12-18T06:51:04;56.15;;;25.02;;
21162;SDS011;10739;52.198;20.908;2022-12-18T06:53:31;60.90;;;23.90;;
21162;SDS011;10739;52.198;20.908;2022-12-18T06:55:59;60.17;;;23.10;;
21162;SDS011;10739;52.198;20.908;2022-12-18T06:58:31;55.40;;;24.45;;
21162;SDS011;10739;52.198;20.908;2022-12-18T07:01:01;53.97;;;23.60;;
21162;SDS011;10739;52.198;20.908;2022-12-18T07:03:30;56.58;;;24.70;;
21162;SDS011;10739;52.198;20.908;2022-12-18T07:05:57;57.35;;;23.38;;
21162;SDS011;10739;52.198;20.908;2022-12-18T07:08:24;55.25;;;24.40;;
21162;SDS011;10739;52.198;20.908;2022-12-18T07:10:50;56.13;;;23.95;;
21162;SDS011;10739;52.198;20.908;2022-12-18T07:13:17;60.00;;;24.63;;
21162;SDS011;10739;52.198;20.908;2022-12-18T07:15:43;59.88;;;25.38;;
21162;SDS011;10739;52.198;20.908;2022-12-18T07:18:09;59.97;;;24.33;;
21162;SDS011;10739;52.198;20.908;2022-12-18T07:20:36;67.05;;;26.05;;
21162;SDS011;10739;52.198;20.908;2022-12-18T07:23:02;65.65;;;25.67;;
21162;SDS011;10739;52.198;20.908;2022-12-18T07:25:33;58.25;;;24.73;;
21162;SDS011;10739;52.198;20.908;2022-12-18T07:28:01;52.17;;;23.52;;
21162;SDS011;10739;52.198;20.908;2022-12-18T07:30:27;61.45;;;26.20;;
21162;SDS011;10739;52.198;20.908;2022-12-18T07:32:54;63.17;;;25.52;;
21162;SDS011;10739;52.198;20.908;2022-12-18T07:35:20;58.88;;;24.70;;
21162;SDS011;10739;52.198;20.908;2022-12-18T07:37:46;60.15;;;24.42;;
21162;SDS011;10739;52.198;20.908;2022-12-18T07:40:12;57.50;;;25.08;;
21162;SDS011;10739;52.198;20.908;2022-12-18T07:42:38;58.97;;;23.00;;
21162;SDS011;10739;52.198;20.908;2022-12-18T07:45:04;56.20;;;23.70;;
21162;SDS011;10739;52.198;20.908;2022-12-18T07:47:33;53.63;;;24.10;;
21162;SDS011;10739;52.198;20.908;2022-12-18T07:50:01;54.00;;;23.63;;
21162;SDS011;10739;52.198;20.908;2022-12-18T07:52:30;49.22;;;21.60;;
21162;SDS011;10739;52.198;20.908;2022-12-18T07:54:55;52.92;;;23.05;;
21162;SDS011;10739;52.198;20.908;2022-12-18T07:57:22;60.42;;;23.30;;
21162;SDS011;10739;52.198;20.908;2022-12-18T07:59:48;58.60;;;22.27;;
21162;SDS011;10739;52.198;20.908;2022-12-18T08:02:14;62.97;;;25.40;;
21162;SDS011;10739;52.198;20.908;2022-12-18T08:04:40;60.60;;;24.60;;
21162;SDS011;10739;52.198;20.908;2022-12-18T08:07:07;55.08;;;23.02;;
21162;SDS011;10739;52.198;20.908;2022-12-18T08:09:33;53.75;;;22.95;;
21162;SDS011;10739;52.198;20.908;2022-12-18T08:11:59;52.95;;;22.90;;
21162;SDS011;10739;52.198;20.908;2022-12-18T08:14:26;68.78;;;24.80;;
21162;SDS011;10739;52.198;20.908;2022-12-18T08:16:51;62.25;;;25.40;;
21162;SDS011;10739;52.198;20.908;2022-12-18T08:19:18;68.15;;;26.92;;
21162;SDS011;10739;52.198;20.908;2022-12-18T08:21:44;64.40;;;24.50;;
21162;SDS011;10739;52.198;20.908;2022-12-18T08:24:11;58.33;;;24.25;;
21162;SDS011;10739;52.198;20.908;2022-12-18T08:26:37;59.85;;;25.88;;
21162;SDS011;10739;52.198;20.908;2022-12-18T08:29:04;62.28;;;25.27;;
21162;SDS011;10739;52.198;20.908;2022-12-18T08:31:30;51.42;;;22.38;;
21162;SDS011;10739;52.198;20.908;2022-12-18T08:33:56;58.75;;;25.35;;
21162;SDS011;10739;52.198;20.908;2022-12-18T08:36:23;66.38;;;26.40;;
21162;SDS011;10739;52.198;20.908;2022-12-18T08:38:51;64.47;;;27.30;;
21162;SDS011;10739;52.198;20.908;2022-12-18T08:41:18;61.42;;;24.83;;
21162;SDS011;10739;52.198;20.908;2022-12-18T08:43:45;67.18;;;28.17;;
21162;SDS011;10739;52.198;20.908;2022-12-18T08:46:34;59.92;;;25.27;;
21162;SDS011;10739;52.198;20.908;2022-12-18T08:49:04;62.28;;;28.20;;
21162;SDS011;10739;52.198;20.908;2022-12-18T08:51:33;54.05;;;25.60;;
21162;SDS011;10739;52.198;20.908;2022-12-18T08:53:59;62.42;;;26.98;;
21162;SDS011;10739;52.198;20.908;2022-12-18T08:56:25;62.88;;;26.52;;
21162;SDS011;10739;52.198;20.908;2022-12-18T08:58:52;65.85;;;27.42;;
21162;SDS011;10739;52.198;20.908;2022-12-18T09:01:20;64.78;;;28.55;;
21162;SDS011;10739;52.198;20.908;2022-12-18T09:03:46;61.97;;;25.77;;
21162;SDS011;10739;52.198;20.908;2022-12-18T09:06:15;60.28;;;26.75;;
21162;SDS011;10739;52.198;20.908;2022-12-18T09:08:43;56.30;;;26.73;;
21162;SDS011;10739;52.198;20.908;2022-12-18T09:11:29;67.68;;;28.05;;
21162;SDS011;10739;52.198;20.908;2022-12-18T09:13:56;58.72;;;26.17;;
21162;SDS011;10739;52.198;20.908;2022-12-18T09:16:28;61.05;;;28.88;;
21162;SDS011;10739;52.198;20.908;2022-12-18T09:18:55;58.95;;;26.65;;
21162;SDS011;10739;52.198;20.908;2022-12-18T09:21:26;51.67;;;26.20;;
21162;SDS011;10739;52.198;20.908;2022-12-18T09:23:58;59.78;;;27.75;;
21162;SDS011;10739;52.198;20.908;2022-12-18T09:26:25;64.32;;;29.00;;
21162;SDS011;10739;52.198;20.908;2022-12-18T09:28:52;60.92;;;27.35;;
21162;SDS011;10739;52.198;20.908;2022-12-18T09:31:19;60.50;;;28.90;;
21162;SDS011;10739;52.198;20.908;2022-12-18T09:33:47;65.80;;;29.02;;
21162;SDS011;10739;52.198;20.908;2022-12-18T09:36:15;70.03;;;29.85;;
21162;SDS011;10739;52.198;20.908;2022-12-18T09:38:43;65.30;;;29.65;;
21162;SDS011;10739;52.198;20.908;2022-12-18T09:44:22;71.45;;;28.45;;
21162;SDS011;10739;52.198;20.908;2022-12-18T09:49:52;61.83;;;27.75;;
21162;SDS011;10739;52.198;20.908;2022-12-18T09:52:36;74.53;;;29.95;;
21162;SDS011;10739;52.198;20.908;2022-12-18T09:57:57;78.75;;;32.03;;
21162;SDS011;10739;52.198;20.908;2022-12-18T10:00:40;72.10;;;29.02;;
21162;SDS011;10739;52.198;20.908;2022-12-18T10:03:10;78.25;;;29.50;;
21162;SDS011;10739;52.198;20.908;2022-12-18T10:05:46;75.85;;;31.15;;
21162;SDS011;10739;52.198;20.908;2022-12-18T10:08:54;76.80;;;30.65;;
21162;SDS011;10739;52.198;20.908;2022-12-18T10:12:14;77.53;;;30.67;;
21162;SDS011;10739;52.198;20.908;2022-12-18T10:15:24;69.05;;;29.98;;
21162;SDS011;10739;52.198;20.908;2022-12-18T10:20:52;61.13;;;26.15;;
21162;SDS011;10739;52.198;20.908;2022-12-18T10:23:31;77.45;;;29.75;;
21162;SDS011;10739;52.198;20.908;2022-12-18T10:26:10;62.67;;;26.35;;
21162;SDS011;10739;52.198;20.908;2022-12-18T10:28:38;70.60;;;29.90;;
21162;SDS011;10739;52.198;20.908;2022-12-18T10:31:07;74.57;;;31.05;;
21162;SDS011;10739;52.198;20.908;2022-12-18T10:33:43;76.38;;;30.40;;
21162;SDS011;10739;52.198;20.908;2022-12-18T10:36:10;74.50;;;30.35;;
21162;SDS011;10739;52.198;20.908;2022-12-18T10:38:37;74.93;;;31.00;;
21162;SDS011;10739;52.198;20.908;2022-12-18T10:43:39;73.93;;;32.72;;
21162;SDS011;10739;52.198;20.908;2022-12-18T10:48:40;78.90;;;32.63;;
21162;SDS011;10739;52.198;20.908;2022-12-18T10:51:23;70.60;;;30.38;;
21162;SDS011;10739;52.198;20.908;2022-12-18T10:54:06;70.28;;;29.95;;
21162;SDS011;10739;52.198;20.908;2022-12-18T10:56:41;74.07;;;30.75;;
21162;SDS011;10739;52.198;20.908;2022-12-18T10:59:09;71.40;;;29.75;;
21162;SDS011;10739;52.198;20.908;2022-12-18T11:01:57;73.47;;;32.20;;
21162;SDS011;10739;52.198;20.908;2022-12-18T11:04:25;79.47;;;32.25;;
21162;SDS011;10739;52.198;20.908;2022-12-18T11:06:59;77.00;;;32.90;;
21162;SDS011;10739;52.198;20.908;2022-12-18T11:09:35;73.20;;;31.42;;
21162;SDS011;10739;52.198;20.908;2022-12-18T11:12:04;80.82;;;32.03;;
21162;SDS011;10739;52.198;20.908;2022-12-18T11:17:32;72.38;;;31.55;;
21162;SDS011;10739;52.198;20.908;2022-12-18T11:20:02;70.65;;;30.23;;
21162;SDS011;10739;52.198;20.908;2022-12-18T11:22:54;70.28;;;28.85;;
21162;SDS011;10739;52.198;20.908;2022-12-18T11:25:28;70.53;;;31.30;;
21162;SDS011;10739;52.198;20.908;2022-12-18T11:28:03;68.25;;;29.83;;
21162;SDS011;10739;52.198;20.908;2022-12-18T11:30:50;72.90;;;32.00;;
21162;SDS011;10739;52.198;20.908;2022-12-18T11:36:57;72.13;;;30.90;;
21162;SDS011;10739;52.198;20.908;2022-12-18T11:39:36;67.97;;;30.88;;
21162;SDS011;10739;52.198;20.908;2022-12-18T11:53:16;70.25;;;29.52;;
21162;SDS011;10739;52.198;20.908;2022-12-18T11:55:54;66.65;;;29.33;;
21162;SDS011;10739;52.198;20.908;2022-12-18T12:18:14;62.47;;;28.98;;
21162;SDS011;10739;52.198;20.908;2022-12-18T12:21:07;67.47;;;29.83;;
21162;SDS011;10739;52.198;20.908;2022-12-18T12:24:33;64.85;;;28.67;;
21162;SDS011;10739;52.198;20.908;2022-12-18T12:35:46;68.30;;;30.42;;
21162;SDS011;10739;52.198;20.908;2022-12-18T12:38:28;72.60;;;30.85;;
21162;SDS011;10739;52.198;20.908;2022-12-18T12:41:22;63.58;;;30.70;;
21162;SDS011;10739;52.198;20.908;2022-12-18T12:44:14;75.67;;;33.23;;
21162;SDS011;10739;52.198;20.908;2022-12-18T12:46:55;70.38;;;29.65;;
21162;SDS011;10739;52.198;20.908;2022-12-18T12:49:29;60.60;;;29.08;;
21162;SDS011;10739;52.198;20.908;2022-12-18T12:54:36;73.50;;;30.10;;
21162;SDS011;10739;52.198;20.908;2022-12-18T13:05:29;64.95;;;29.60;;
21162;SDS011;10739;52.198;20.908;2022-12-18T13:08:12;67.03;;;30.83;;
21162;SDS011;10739;52.198;20.908;2022-12-18T13:10:57;69.78;;;30.42;;
21162;SDS011;10739;52.198;20.908;2022-12-18T13:13:51;77.13;;;33.05;;
21162;SDS011;10739;52.198;20.908;2022-12-18T13:16:21;69.65;;;31.45;;
21162;SDS011;10739;52.198;20.908;2022-12-18T13:18:50;72.00;;;31.13;;
21162;SDS011;10739;52.198;20.908;2022-12-18T13:21:29;72.57;;;31.20;;
21162;SDS011;10739;52.198;20.908;2022-12-18T13:26:58;67.93;;;29.23;;
21162;SDS011;10739;52.198;20.908;2022-12-18T13:29:44;66.05;;;29.27;;
21162;SDS011;10739;52.198;20.908;2022-12-18T13:32:21;76.18;;;29.92;;
21162;SDS011;10739;52.198;20.908;2022-12-18T13:37:59;67.80;;;29.75;;
21162;SDS011;10739;52.198;20.908;2022-12-18T13:45:45;67.63;;;28.85;;
21162;SDS011;10739;52.198;20.908;2022-12-18T13:48:37;70.15;;;29.65;;
21162;SDS011;10739;52.198;20.908;2022-12-18T13:51:05;79.20;;;34.10;;
21162;SDS011;10739;52.198;20.908;2022-12-18T13:53:47;72.38;;;32.47;;
21162;SDS011;10739;52.198;20.908;2022-12-18T13:56:29;74.80;;;31.80;;
21162;SDS011;10739;52.198;20.908;2022-12-18T13:59:18;79.35;;;34.70;;
21162;SDS011;10739;52.198;20.908;2022-12-18T14:02:44;84.13;;;34.40;;
21162;SDS011;10739;52.198;20.908;2022-12-18T14:04:52;87.00;;;35.25;;
21162;SDS011;10739;52.198;20.908;2022-12-18T14:07:23;82.82;;;34.15;;
21162;SDS011;10739;52.198;20.908;2022-12-18T14:09:52;75.78;;;33.60;;
21162;SDS011;10739;52.198;20.908;2022-12-18T14:12:32;79.75;;;33.75;;
21162;SDS011;10739;52.198;20.908;2022-12-18T14:17:57;68.75;;;31.85;;
21162;SDS011;10739;52.198;20.908;2022-12-18T14:20:54;76.65;;;31.30;;
21162;SDS011;10739;52.198;20.908;2022-12-18T14:26:25;76.60;;;30.38;;
21162;SDS011;10739;52.198;20.908;2022-12-18T14:28:57;76.90;;;33.28;;
21162;SDS011;10739;52.198;20.908;2022-12-18T14:33:56;77.35;;;32.03;;
21162;SDS011;10739;52.198;20.908;2022-12-18T14:36:24;74.50;;;32.90;;
21162;SDS011;10739;52.198;20.908;2022-12-18T14:38:53;80.10;;;33.35;;
21162;SDS011;10739;52.198;20.908;2022-12-18T14:41:22;72.90;;;32.47;;
21162;SDS011;10739;52.198;20.908;2022-12-18T14:43:51;82.40;;;33.40;;
21162;SDS011;10739;52.198;20.908;2022-12-18T14:48:56;79.50;;;33.70;;
21162;SDS011;10739;52.198;20.908;2022-12-18T14:51:24;87.50;;;35.55;;
21162;SDS011;10739;52.198;20.908;2022-12-18T14:53:55;78.10;;;34.40;;
21162;SDS011;10739;52.198;20.908;2022-12-18T14:56:36;68.30;;;29.20;;
21162;SDS011;10739;52.198;20.908;2022-12-18T14:59:15;69.47;;;31.63;;
21162;SDS011;10739;52.198;20.908;2022-12-18T15:04:47;63.92;;;28.00;;
21162;SDS011;10739;52.198;20.908;2022-12-18T15:07:46;68.53;;;29.35;;
21162;SDS011;10739;52.198;20.908;2022-12-18T15:13:16;62.47;;;27.83;;
21162;SDS011;10739;52.198;20.908;2022-12-18T15:15:52;70.47;;;28.48;;
21162;SDS011;10739;52.198;20.908;2022-12-18T15:18:32;70.97;;;29.70;;
21162;SDS011;10739;52.198;20.908;2022-12-18T15:21:10;61.78;;;27.80;;
21162;SDS011;10739;52.198;20.908;2022-12-18T15:23:47;67.32;;;29.15;;
21162;SDS011;10739;52.198;20.908;2022-12-18T15:26:19;64.93;;;29.90;;
21162;SDS011;10739;52.198;20.908;2022-12-18T15:31:22;64.85;;;28.45;;
21162;SDS011;10739;52.198;20.908;2022-12-18T15:36:24;62.55;;;28.55;;
21162;SDS011;10739;52.198;20.908;2022-12-18T15:39:01;58.28;;;26.63;;
21162;SDS011;10739;52.198;20.908;2022-12-18T15:41:30;60.97;;;27.65;;
21162;SDS011;10739;52.198;20.908;2022-12-18T15:43:59;57.97;;;26.98;;
21162;SDS011;10739;52.198;20.908;2022-12-18T15:46:26;63.90;;;26.88;;
21162;SDS011;10739;52.198;20.908;2022-12-18T15:48:56;57.10;;;26.20;;
21162;SDS011;10739;52.198;20.908;2022-12-18T15:51:27;64.15;;;27.50;;
21162;SDS011;10739;52.198;20.908;2022-12-18T15:54:00;56.55;;;26.33;;
21162;SDS011;10739;52.198;20.908;2022-12-18T15:56:30;60.17;;;26.20;;
21162;SDS011;10739;52.198;20.908;2022-12-18T15:59:19;61.08;;;26.80;;
21162;SDS011;10739;52.198;20.908;2022-12-18T16:01:47;57.97;;;27.52;;
21162;SDS011;10739;52.198;20.908;2022-12-18T16:04:17;61.25;;;27.77;;
21162;SDS011;10739;52.198;20.908;2022-12-18T16:06:45;62.13;;;28.90;;
21162;SDS011;10739;52.198;20.908;2022-12-18T16:09:12;59.55;;;27.50;;
21162;SDS011;10739;52.198;20.908;2022-12-18T16:11:39;66.28;;;27.42;;
21162;SDS011;10739;52.198;20.908;2022-12-18T16:16:56;62.90;;;27.13;;
21162;SDS011;10739;52.198;20.908;2022-12-18T16:19:28;61.40;;;26.95;;
21162;SDS011;10739;52.198;20.908;2022-12-18T16:21:56;62.83;;;27.23;;
21162;SDS011;10739;52.198;20.908;2022-12-18T16:24:24;59.95;;;26.45;;
21162;SDS011;10739;52.198;20.908;2022-12-18T16:26:54;64.97;;;28.35;;
21162;SDS011;10739;52.198;20.908;2022-12-18T16:29:23;56.15;;;25.83;;
21162;SDS011;10739;52.198;20.908;2022-12-18T16:31:53;55.88;;;27.40;;
21162;SDS011;10739;52.198;20.908;2022-12-18T16:36:54;70.55;;;29.48;;
21162;SDS011;10739;52.198;20.908;2022-12-18T16:39:26;61.30;;;28.10;;
21162;SDS011;10739;52.198;20.908;2022-12-18T16:41:53;63.25;;;28.05;;
21162;SDS011;10739;52.198;20.908;2022-12-18T16:44:20;65.07;;;28.33;;
21162;SDS011;10739;52.198;20.908;2022-12-18T16:46:46;64.60;;;28.10;;
21162;SDS011;10739;52.198;20.908;2022-12-18T16:49:16;60.17;;;27.45;;
21162;SDS011;10739;52.198;20.908;2022-12-18T16:51:45;62.00;;;26.70;;
21162;SDS011;10739;52.198;20.908;2022-12-18T16:54:12;61.47;;;27.60;;
21162;SDS011;10739;52.198;20.908;2022-12-18T16:56:38;62.80;;;26.23;;
21162;SDS011;10739;52.198;20.908;2022-12-18T16:59:04;54.20;;;25.65;;
21162;SDS011;10739;52.198;20.908;2022-12-18T17:01:31;60.67;;;26.38;;
21162;SDS011;10739;52.198;20.908;2022-12-18T17:04:01;61.67;;;25.55;;
21162;SDS011;10739;52.198;20.908;2022-12-18T17:06:31;65.25;;;27.70;;
21162;SDS011;10739;52.198;20.908;2022-12-18T17:09:02;64.78;;;27.13;;